Hlavní strana
METAR-TAF:

METAR-TAF

Letiště :

Tadoule Lake, Manitoba, Kanada

zeměpisná šířka: 58-42-22N, zeměpisná délka: 98-30-44W, výška: 281 m

Aktuální stav počasí

Zpráva byla vytvořena před 2 hodinami a 7 minutami, v 05:00 UTC
Západní vítr 4 kt
Teplota 7°C
Vlhkost vzduchu 81%
Tlak 1017 hPa
Viditelnost: 14.5 km
Jasno

METAR: CYBQ 200500Z AUTO 28004KT 9SM CLR 07/04 A3004 RMK SLP186

Čas: 02:07 (07:07 UTC)


TAF: chybějící

Stav a předpovědi počasí z více než 4 000 letišť (zprávy METAR a TAF).

Červené a žluté tečky na mapě představují dostupné meteorologické stanice.

Když kurzor umístíte na tečku, zobrazí se název stanice.

Pak kliknutím zobrazíte stav a předpověď počasí.

Chcete-li změnit mapu, kliknutím na zelené tlačítko se znaménkem +mapu přiblížíte, kliknutím na zelené tlačítko se znaménkem – mapu oddálíte a kliknutím na zelené šipky přejdete na sousední mapy.


METAR-TAF: